createdAt,value
2023-03-17T00:00:08.929Z,7.90
2023-03-17T00:04:15.308Z,7.90
2023-03-17T00:08:22.991Z,7.88
2023-03-17T00:12:25.821Z,7.89
2023-03-17T00:16:32.499Z,7.91
2023-03-17T00:20:35.484Z,7.96
2023-03-17T00:24:38.602Z,7.96
2023-03-17T00:28:41.560Z,7.98
2023-03-17T00:32:46.825Z,7.99
2023-03-17T00:36:51.656Z,8.02
2023-03-17T00:40:54.778Z,8.05
2023-03-17T00:44:58.387Z,8.04
2023-03-17T00:49:03.503Z,8.06
2023-03-17T00:53:08.619Z,8.03
2023-03-17T00:57:12.692Z,7.97
2023-03-17T01:01:16.002Z,7.83
2023-03-17T01:05:21.772Z,7.76
2023-03-17T01:09:28.222Z,7.72
2023-03-17T01:13:31.259Z,7.73
2023-03-17T01:17:35.303Z,7.70
2023-03-17T01:21:40.698Z,7.63
2023-03-17T01:25:45.339Z,7.58
2023-03-17T01:29:48.238Z,7.58
2023-03-17T01:33:52.741Z,7.60
2023-03-17T01:37:58.059Z,7.55
2023-03-17T01:42:01.496Z,7.51
2023-03-17T01:46:28.339Z,7.53
2023-03-17T01:50:31.839Z,7.49
2023-03-17T01:54:40.910Z,7.44
2023-03-17T01:58:46.602Z,7.41
2023-03-17T02:02:51.611Z,7.37
2023-03-17T02:06:58.357Z,7.41
2023-03-17T02:11:05.054Z,7.41
2023-03-17T02:15:09.753Z,7.38
2023-03-17T02:19:12.868Z,7.31
2023-03-17T02:23:20.051Z,7.32
2023-03-17T02:27:27.681Z,7.19
2023-03-17T02:31:31.203Z,7.19
2023-03-17T02:35:34.012Z,7.09
2023-03-17T02:39:38.388Z,7.13
2023-03-17T02:43:41.383Z,7.00
2023-03-17T02:47:44.762Z,7.00
2023-03-17T02:51:48.078Z,7.02
2023-03-17T02:55:52.391Z,7.01
2023-03-17T02:59:55.422Z,6.98
2023-03-17T03:03:58.758Z,6.91
2023-03-17T03:08:01.613Z,6.91
2023-03-17T03:12:09.905Z,6.83
2023-03-17T03:16:13.169Z,6.91
2023-03-17T03:20:16.265Z,6.92
2023-03-17T03:24:19.144Z,6.83
2023-03-17T03:28:23.403Z,6.89
2023-03-17T03:32:26.455Z,6.87
2023-03-17T03:36:29.705Z,6.81
2023-03-17T03:40:32.682Z,6.88
2023-03-17T03:44:37.180Z,6.88
2023-03-17T03:48:40.519Z,6.86
2023-03-17T03:52:43.638Z,6.88
2023-03-17T03:56:46.500Z,6.93
2023-03-17T04:00:51.948Z,6.97
2023-03-17T04:04:55.196Z,7.04
2023-03-17T04:08:58.493Z,7.13
2023-03-17T04:13:04.474Z,7.17
2023-03-17T04:17:09.357Z,7.21
2023-03-17T04:21:12.305Z,7.26
2023-03-17T04:25:16.657Z,7.33
2023-03-17T04:29:20.059Z,7.36
2023-03-17T04:33:24.958Z,7.36
2023-03-17T04:37:28.083Z,7.37
2023-03-17T04:41:31.113Z,7.41
2023-03-17T04:45:34.118Z,7.43
2023-03-17T04:49:38.485Z,7.40
2023-03-17T04:53:41.419Z,7.42
2023-03-17T04:57:44.911Z,7.40
2023-03-17T05:01:47.979Z,7.41
2023-03-17T05:05:52.719Z,7.38
2023-03-17T05:09:55.527Z,7.37
2023-03-17T05:13:58.466Z,7.30
2023-03-17T05:18:03.305Z,7.22
2023-03-17T05:22:09.519Z,7.13
2023-03-17T05:26:13.079Z,7.01
2023-03-17T05:30:16.962Z,6.88
2023-03-17T05:34:19.831Z,6.76
2023-03-17T05:38:24.047Z,6.64
2023-03-17T05:42:27.160Z,6.55
2023-03-17T05:46:30.137Z,6.46
2023-03-17T05:50:33.369Z,6.39
2023-03-17T05:54:38.388Z,6.35
2023-03-17T05:58:41.634Z,6.25
2023-03-17T06:02:44.955Z,6.18
2023-03-17T06:06:48.561Z,6.13
2023-03-17T06:10:52.785Z,6.08
2023-03-17T06:14:55.907Z,6.05
2023-03-17T06:18:58.660Z,6.06
2023-03-17T06:23:05.259Z,6.06
2023-03-17T06:27:10.878Z,6.08
2023-03-17T06:31:13.849Z,6.14
2023-03-17T06:35:17.920Z,6.27
2023-03-17T06:39:21.379Z,6.38
2023-03-17T06:43:25.661Z,6.53
2023-03-17T06:47:28.543Z,6.71
2023-03-17T06:51:32.447Z,6.89
2023-03-17T06:55:35.727Z,7.07
2023-03-17T06:59:40.337Z,7.28
2023-03-17T07:03:43.718Z,7.47
2023-03-17T07:07:46.992Z,7.63
2023-03-17T07:11:49.975Z,7.81
2023-03-17T07:15:55.547Z,8.01
2023-03-17T07:19:59.479Z,8.26
2023-03-17T07:24:02.624Z,8.47
2023-03-17T07:28:05.845Z,8.71
2023-03-17T07:32:10.348Z,8.90
2023-03-17T07:36:13.553Z,9.07
2023-03-17T07:40:18.341Z,9.23
2023-03-17T07:44:21.303Z,9.41
2023-03-17T07:48:25.593Z,9.61
2023-03-17T07:52:28.463Z,9.76
2023-03-17T07:56:33.274Z,9.96
2023-03-17T08:00:36.588Z,10.10
2023-03-17T08:04:41.522Z,10.27
2023-03-17T08:08:44.470Z,10.43
2023-03-17T08:12:51.785Z,10.59
2023-03-17T08:16:55.700Z,10.78
2023-03-17T08:20:59.944Z,10.96
2023-03-17T08:25:03.485Z,11.12
2023-03-17T08:29:08.024Z,11.25
2023-03-17T08:33:11.446Z,11.41
2023-03-17T08:37:16.306Z,11.58
2023-03-17T08:41:21.281Z,11.73
2023-03-17T08:45:24.651Z,11.92
2023-03-17T08:49:28.453Z,12.07
2023-03-17T08:53:34.861Z,12.24
2023-03-17T08:57:38.922Z,12.41
2023-03-17T09:01:44.077Z,12.56
2023-03-17T09:05:47.103Z,12.68
2023-03-17T09:09:51.705Z,12.86
2023-03-17T09:13:55.590Z,13.02
2023-03-17T09:17:59.045Z,13.26
2023-03-17T09:22:03.813Z,13.41
2023-03-17T09:26:08.872Z,13.55
2023-03-17T09:30:13.989Z,13.64
2023-03-17T09:34:16.828Z,13.85
2023-03-17T09:38:19.656Z,14.25
2023-03-17T09:42:39.177Z,14.59
2023-03-17T09:46:49.405Z,14.94
2023-03-17T09:50:57.481Z,15.24
2023-03-17T09:55:03.239Z,15.29
2023-03-17T09:59:21.507Z,15.19
2023-03-17T10:03:27.287Z,15.15
2023-03-17T10:07:42.987Z,15.06
2023-03-17T10:11:48.803Z,15.16
2023-03-17T10:15:58.297Z,15.30
2023-03-17T10:20:06.963Z,15.35
2023-03-17T10:24:12.223Z,15.45
2023-03-17T10:28:27.121Z,15.65
2023-03-17T10:32:32.964Z,15.86
2023-03-17T10:36:38.817Z,16.11
2023-03-17T10:40:42.682Z,16.23
2023-03-17T10:44:51.155Z,16.42
2023-03-17T10:48:58.337Z,16.42
2023-03-17T10:53:07.886Z,16.58
2023-03-17T10:57:14.303Z,16.54
2023-03-17T11:01:23.744Z,16.43
2023-03-17T11:05:29.917Z,16.33
2023-03-17T11:09:36.895Z,16.34
2023-03-17T11:13:40.889Z,16.34
2023-03-17T11:17:52.470Z,16.36
2023-03-17T11:22:06.646Z,16.37
2023-03-17T11:26:24.248Z,16.64
2023-03-17T11:30:32.791Z,16.93
2023-03-17T11:34:57.388Z,17.15
2023-03-17T11:39:11.606Z,17.31
2023-03-17T11:43:29.114Z,17.43
2023-03-17T11:47:58.260Z,17.62
2023-03-17T11:52:06.475Z,17.77
2023-03-17T11:56:18.995Z,17.93
2023-03-17T12:00:28.943Z,18.09
2023-03-17T12:04:37.847Z,18.20
2023-03-17T12:08:46.452Z,18.19
2023-03-17T12:12:54.360Z,18.36
2023-03-17T12:17:04.902Z,18.47
2023-03-17T12:21:16.108Z,18.48
2023-03-17T12:25:25.621Z,18.57
2023-03-17T12:29:43.525Z,18.62
2023-03-17T12:33:53.417Z,18.63
2023-03-17T12:38:00.440Z,18.74
2023-03-17T12:42:27.308Z,18.74
2023-03-17T12:47:15.755Z,18.49
2023-03-17T12:51:44.829Z,18.73
2023-03-17T12:55:51.997Z,19.03
2023-03-17T13:00:01.743Z,18.96
2023-03-17T13:04:26.465Z,19.01
2023-03-17T13:08:32.258Z,19.14
2023-03-17T13:13:05.673Z,19.05
2023-03-17T13:17:34.138Z,19.05
2023-03-17T13:21:38.936Z,18.96
2023-03-17T13:25:53.376Z,18.75
2023-03-17T13:29:56.535Z,18.65
2023-03-17T13:34:07.922Z,18.67
2023-03-17T13:38:32.139Z,18.67
2023-03-17T13:42:54.334Z,18.62
2023-03-17T13:47:15.869Z,18.57
2023-03-17T13:51:22.434Z,18.61
2023-03-17T13:55:41.115Z,18.44
2023-03-17T13:59:57.178Z,18.42
2023-03-17T14:04:04.108Z,18.44
2023-03-17T14:08:16.774Z,18.38
2023-03-17T14:12:27.661Z,18.32
2023-03-17T14:16:35.487Z,18.31
2023-03-17T14:20:38.403Z,18.28
2023-03-17T14:24:41.581Z,18.28
2023-03-17T14:28:45.944Z,18.27
2023-03-17T14:32:51.609Z,18.20
2023-03-17T14:36:55.307Z,18.34
2023-03-17T14:41:02.922Z,18.47
2023-03-17T14:45:09.540Z,18.36
2023-03-17T14:49:17.612Z,18.27
2023-03-17T14:53:23.939Z,18.33
2023-03-17T14:57:29.593Z,18.33
2023-03-17T15:01:37.644Z,18.33
2023-03-17T15:05:43.006Z,18.46
2023-03-17T15:09:45.895Z,18.42
2023-03-17T15:13:51.002Z,18.25
2023-03-17T15:17:57.981Z,18.16
2023-03-17T15:22:06.203Z,18.01
2023-03-17T15:26:23.464Z,17.93
2023-03-17T15:30:37.350Z,17.90
2023-03-17T15:34:51.318Z,17.83
2023-03-17T15:38:55.259Z,17.76
2023-03-17T15:42:58.943Z,17.72
2023-03-17T15:47:01.774Z,17.72
2023-03-17T15:51:07.456Z,17.71
2023-03-17T15:55:20.908Z,17.71
2023-03-17T15:59:24.521Z,17.71
2023-03-17T16:03:31.158Z,17.57
2023-03-17T16:07:35.280Z,17.56
2023-03-17T16:11:40.343Z,17.55
2023-03-17T16:15:53.933Z,17.54
2023-03-17T16:19:57.350Z,17.53
2023-03-17T16:24:01.467Z,17.52
2023-03-17T16:28:16.438Z,17.51
2023-03-17T16:32:19.300Z,17.42
2023-03-17T16:36:24.047Z,17.38
2023-03-17T16:40:34.195Z,17.33
2023-03-17T16:44:37.272Z,17.27
2023-03-17T16:48:52.278Z,17.21
2023-03-17T16:53:01.133Z,17.13
2023-03-17T16:57:10.585Z,17.06
2023-03-17T17:01:17.877Z,16.98
2023-03-17T17:05:22.997Z,16.89
2023-03-17T17:09:26.237Z,16.80
2023-03-17T17:13:31.518Z,16.72
2023-03-17T17:17:35.743Z,16.63
2023-03-17T17:21:38.458Z,16.52
2023-03-17T17:25:41.455Z,16.38
2023-03-17T17:29:45.627Z,16.25
2023-03-17T17:33:48.472Z,16.10
2023-03-17T17:37:51.435Z,15.96
2023-03-17T17:41:56.393Z,15.79
2023-03-17T17:46:01.762Z,15.61
2023-03-17T17:50:05.815Z,15.51
2023-03-17T17:54:10.203Z,15.42
2023-03-17T17:58:14.313Z,15.30
2023-03-17T18:02:18.493Z,15.20
2023-03-17T18:06:22.203Z,15.08
2023-03-17T18:10:26.755Z,14.96
2023-03-17T18:14:30.014Z,14.90
2023-03-17T18:18:42.325Z,14.82
2023-03-17T18:22:45.886Z,14.70
2023-03-17T18:26:49.540Z,14.59
2023-03-17T18:30:52.717Z,14.51
2023-03-17T18:35:00.584Z,14.32
2023-03-17T18:39:04.081Z,14.19
2023-03-17T18:43:07.050Z,14.15
2023-03-17T18:47:10.512Z,14.06
2023-03-17T18:51:16.215Z,14.01
2023-03-17T18:55:31.426Z,13.91
2023-03-17T18:59:34.350Z,13.89
2023-03-17T19:03:37.733Z,13.93
2023-03-17T19:07:42.061Z,13.94
2023-03-17T19:11:56.221Z,13.93
2023-03-17T19:15:59.284Z,13.91
2023-03-17T19:20:03.618Z,13.91
2023-03-17T19:24:10.148Z,13.91
2023-03-17T19:28:15.596Z,13.92
2023-03-17T19:32:21.968Z,13.91
2023-03-17T19:36:25.879Z,13.91
2023-03-17T19:40:30.808Z,13.93
2023-03-17T19:44:33.736Z,13.94
2023-03-17T19:48:37.406Z,13.93
2023-03-17T19:52:40.405Z,13.90
2023-03-17T19:56:44.657Z,13.88
2023-03-17T20:00:47.839Z,13.83
2023-03-17T20:04:51.088Z,13.76
2023-03-17T20:08:54.130Z,13.73
2023-03-17T20:12:58.667Z,13.70
2023-03-17T20:17:01.429Z,13.68
2023-03-17T20:21:07.714Z,13.63
2023-03-17T20:25:12.349Z,13.59
2023-03-17T20:29:17.544Z,13.54
2023-03-17T20:33:20.448Z,13.49
2023-03-17T20:37:24.753Z,13.46
2023-03-17T20:41:28.067Z,13.39
2023-03-17T20:45:32.396Z,13.34
2023-03-17T20:49:35.976Z,13.29
2023-03-17T20:53:39.067Z,13.25
2023-03-17T20:57:45.248Z,13.21
2023-03-17T21:01:49.970Z,13.15
2023-03-17T21:05:53.466Z,13.12
2023-03-17T21:09:56.749Z,13.02
2023-03-17T21:14:03.314Z,12.98
2023-03-17T21:18:08.291Z,12.94
2023-03-17T21:22:12.376Z,12.93
2023-03-17T21:26:15.986Z,12.90
2023-03-17T21:30:19.111Z,12.89
2023-03-17T21:34:24.298Z,12.88
2023-03-17T21:38:29.592Z,12.87
2023-03-17T21:42:33.340Z,12.89
2023-03-17T21:46:36.352Z,12.92
2023-03-17T21:50:40.504Z,12.89
2023-03-17T21:54:51.674Z,12.93
2023-03-17T21:58:54.672Z,12.94
2023-03-17T22:03:01.318Z,12.99
2023-03-17T22:07:06.011Z,12.97
2023-03-17T22:11:11.177Z,13.03
2023-03-17T22:15:14.371Z,13.03
2023-03-17T22:19:20.595Z,13.02
2023-03-17T22:23:26.007Z,13.04
2023-03-17T22:27:29.247Z,13.05
2023-03-17T22:31:32.540Z,13.09
2023-03-17T22:35:36.342Z,13.07
2023-03-17T22:39:41.646Z,13.07
2023-03-17T22:43:44.830Z,13.07
2023-03-17T22:47:47.542Z,13.06
2023-03-17T22:51:51.183Z,13.07
2023-03-17T22:56:04.995Z,13.09
2023-03-17T23:00:13.908Z,13.12
2023-03-17T23:04:18.386Z,13.15
2023-03-17T23:08:22.090Z,13.13
2023-03-17T23:12:28.246Z,13.13
2023-03-17T23:16:32.069Z,13.15
2023-03-17T23:20:34.878Z,13.15
2023-03-17T23:24:37.832Z,13.15
2023-03-17T23:28:44.273Z,13.10
2023-03-17T23:32:49.099Z,13.10
2023-03-17T23:36:52.368Z,13.10
2023-03-17T23:40:57.492Z,13.10
2023-03-17T23:45:02.032Z,13.09
2023-03-17T23:49:07.144Z,13.07
2023-03-17T23:53:11.511Z,13.07
2023-03-17T23:57:16.285Z,13.09
